createdAt,value
2018-09-11T00:00:14.786Z,6.90
2018-09-11T00:02:50.356Z,12.80
2018-09-11T00:05:25.696Z,8.70
2018-09-11T00:08:01.242Z,8.45
2018-09-11T00:10:36.589Z,5.22
2018-09-11T00:13:11.908Z,11.22
2018-09-11T00:15:47.445Z,7.25
2018-09-11T00:18:22.846Z,8.05
2018-09-11T00:20:58.429Z,7.35
2018-09-11T00:23:34.036Z,6.08
2018-09-11T00:26:09.443Z,4.45
2018-09-11T00:28:44.942Z,10.23
2018-09-11T00:31:20.519Z,8.28
2018-09-11T00:33:56.065Z,7.55
2018-09-11T00:36:31.466Z,8.50
2018-09-11T00:39:08.047Z,8.58
2018-09-11T00:41:43.319Z,5.85
2018-09-11T00:44:18.610Z,5.95
2018-09-11T00:46:53.969Z,5.00
2018-09-11T00:49:29.337Z,5.28
2018-09-11T00:52:04.956Z,6.35
2018-09-11T00:54:40.616Z,5.55
2018-09-11T00:57:16.326Z,5.75
2018-09-11T00:59:52.109Z,8.00
2018-09-11T01:02:27.612Z,5.40
2018-09-11T01:05:03.257Z,6.72
2018-09-11T01:07:38.839Z,8.10
2018-09-11T01:10:14.593Z,10.58
2018-09-11T01:12:49.958Z,6.70
2018-09-11T01:15:25.446Z,12.25
2018-09-11T01:18:01.080Z,6.62
2018-09-11T01:20:36.698Z,5.10
2018-09-11T01:23:12.247Z,8.23
2018-09-11T01:25:47.615Z,10.08
2018-09-11T01:28:23.265Z,7.08
2018-09-11T01:30:58.570Z,14.80
2018-09-11T01:33:34.066Z,7.00
2018-09-11T01:36:09.689Z,6.80
2018-09-11T01:38:45.170Z,7.45
2018-09-11T01:41:20.772Z,13.15
2018-09-11T01:43:56.386Z,9.95
2018-09-11T01:46:31.839Z,8.05
2018-09-11T01:49:07.359Z,8.78
2018-09-11T01:51:42.695Z,8.70
2018-09-11T01:54:20.866Z,10.13
2018-09-11T01:56:56.305Z,7.75
2018-09-11T01:59:31.896Z,7.55
2018-09-11T02:02:07.600Z,12.25
2018-09-11T02:04:43.197Z,11.70
2018-09-11T02:07:18.569Z,5.25
2018-09-11T02:09:54.179Z,8.78
2018-09-11T02:12:29.860Z,14.40
2018-09-11T02:15:05.609Z,16.07
2018-09-11T02:17:41.489Z,10.03
2018-09-11T02:20:16.999Z,7.80
2018-09-11T02:22:52.540Z,8.88
2018-09-11T02:25:27.912Z,7.30
2018-09-11T02:28:03.267Z,6.55
2018-09-11T02:30:38.679Z,9.93
2018-09-11T02:33:14.097Z,8.55
2018-09-11T02:35:49.699Z,6.20
2018-09-11T02:38:24.847Z,6.65
2018-09-11T02:41:00.279Z,7.75
2018-09-11T02:43:35.829Z,9.43
2018-09-11T02:46:11.332Z,10.75
2018-09-11T02:48:46.776Z,11.93
2018-09-11T02:51:22.166Z,10.88
2018-09-11T02:53:57.530Z,7.62
2018-09-11T02:56:33.056Z,7.72
2018-09-11T02:59:08.467Z,7.65
2018-09-11T03:01:43.788Z,10.53
2018-09-11T03:04:18.999Z,6.90
2018-09-11T03:06:54.306Z,17.67
2018-09-11T03:09:29.866Z,12.00
2018-09-11T03:12:05.400Z,13.88
2018-09-11T03:14:40.817Z,18.80
2018-09-11T03:17:16.389Z,11.80
2018-09-11T03:19:51.759Z,11.97
2018-09-11T03:22:27.326Z,12.65
2018-09-11T03:25:02.866Z,14.45
2018-09-11T03:27:38.395Z,11.33
2018-09-11T03:30:13.900Z,14.50
2018-09-11T03:32:49.396Z,20.72
2018-09-11T03:35:24.957Z,12.53
2018-09-11T03:38:00.593Z,13.08
2018-09-11T03:40:35.949Z,11.57
2018-09-11T03:43:11.533Z,15.18
2018-09-11T03:45:48.956Z,21.97
2018-09-11T03:48:24.229Z,21.55
2018-09-11T03:50:59.480Z,15.68
2018-09-11T03:53:34.711Z,19.15
2018-09-11T03:56:09.966Z,13.28
2018-09-11T03:58:45.369Z,10.93
2018-09-11T04:01:20.885Z,15.08
2018-09-11T04:03:56.392Z,17.27
2018-09-11T04:06:32.063Z,20.20
2018-09-11T04:09:11.647Z,13.22
2018-09-11T04:11:47.118Z,13.98
2018-09-11T04:14:22.874Z,13.10
2018-09-11T04:16:58.232Z,13.35
2018-09-11T04:19:33.867Z,18.02
2018-09-11T04:22:09.342Z,21.02
2018-09-11T04:24:44.716Z,18.90
2018-09-11T04:27:20.046Z,14.87
2018-09-11T04:29:55.472Z,23.90
2018-09-11T04:32:30.867Z,18.12
2018-09-11T04:35:06.409Z,20.37
2018-09-11T04:37:41.920Z,14.68
2018-09-11T04:40:17.211Z,18.45
2018-09-11T04:42:52.762Z,18.75
2018-09-11T04:45:28.239Z,22.02
2018-09-11T04:48:03.729Z,26.62
2018-09-11T04:50:39.134Z,22.93
2018-09-11T04:53:14.484Z,18.90
2018-09-11T04:55:49.978Z,25.30
2018-09-11T04:58:25.406Z,20.77
2018-09-11T05:01:01.189Z,19.02
2018-09-11T05:03:36.764Z,24.80
2018-09-11T05:06:12.168Z,22.95
2018-09-11T05:08:47.689Z,21.10
2018-09-11T05:11:23.066Z,29.32
2018-09-11T05:13:58.620Z,24.57
2018-09-11T05:16:34.091Z,20.37
2018-09-11T05:19:09.547Z,26.42
2018-09-11T05:21:44.951Z,20.37
2018-09-11T05:24:20.357Z,30.68
2018-09-11T05:26:55.761Z,23.00
2018-09-11T05:29:31.128Z,28.23
2018-09-11T05:32:06.351Z,19.87
2018-09-11T05:34:41.629Z,21.42
2018-09-11T05:37:16.920Z,20.50
2018-09-11T05:39:52.360Z,23.42
2018-09-11T05:42:28.543Z,32.67
2018-09-11T05:45:04.119Z,28.65
2018-09-11T05:47:39.908Z,22.75
2018-09-11T05:50:15.199Z,20.12
2018-09-11T05:52:50.802Z,30.08
2018-09-11T05:55:26.103Z,26.15
2018-09-11T05:58:01.568Z,25.40
2018-09-11T06:00:37.041Z,24.43
2018-09-11T06:03:12.646Z,29.85
2018-09-11T06:05:48.126Z,22.48
2018-09-11T06:08:23.487Z,24.05
2018-09-11T06:10:59.167Z,14.25
2018-09-11T06:13:34.617Z,18.85
2018-09-11T06:16:10.080Z,19.87
2018-09-11T06:18:45.607Z,24.90
2018-09-11T06:21:21.393Z,20.48
2018-09-11T06:23:57.081Z,21.45
2018-09-11T06:26:32.570Z,22.00
2018-09-11T06:29:08.470Z,28.02
2018-09-11T06:31:43.698Z,19.12
2018-09-11T06:34:18.962Z,21.90
2018-09-11T06:36:54.350Z,25.02
2018-09-11T06:39:30.079Z,24.47
2018-09-11T06:42:05.508Z,19.85
2018-09-11T06:44:41.025Z,16.82
2018-09-11T06:47:16.398Z,22.32
2018-09-11T06:49:51.910Z,22.85
2018-09-11T06:52:27.399Z,16.30
2018-09-11T06:55:02.808Z,21.97
2018-09-11T06:57:38.099Z,23.07
2018-09-11T07:00:13.565Z,28.50
2018-09-11T07:02:49.229Z,24.55
2018-09-11T07:05:26.328Z,18.55
2018-09-11T07:08:02.392Z,24.20
2018-09-11T07:10:38.294Z,27.77
2018-09-11T07:13:14.224Z,18.40
2018-09-11T07:15:49.964Z,21.87
2018-09-11T07:18:25.540Z,18.17
2018-09-11T07:21:01.212Z,19.65
2018-09-11T07:23:36.646Z,22.37
2018-09-11T07:26:12.123Z,19.55
2018-09-11T07:28:47.475Z,20.25
2018-09-11T07:31:22.963Z,20.90
2018-09-11T07:33:58.510Z,15.40
2018-09-11T07:36:33.978Z,17.98
2018-09-11T07:39:09.766Z,14.80
2018-09-11T07:41:45.920Z,19.52
2018-09-11T07:44:21.257Z,21.17
2018-09-11T07:46:56.949Z,17.70
2018-09-11T07:49:32.570Z,16.60
2018-09-11T07:52:08.158Z,15.00
2018-09-11T07:54:43.529Z,17.50
2018-09-11T07:57:18.863Z,21.70
2018-09-11T07:59:54.118Z,20.80
2018-09-11T08:02:29.599Z,16.90
2018-09-11T08:05:05.003Z,22.40
2018-09-11T08:07:40.598Z,17.73
2018-09-11T08:10:16.001Z,12.73
2018-09-11T08:12:51.691Z,15.18
2018-09-11T08:15:27.189Z,17.87
2018-09-11T08:18:02.715Z,14.73
2018-09-11T08:20:38.050Z,18.85
2018-09-11T08:23:13.266Z,16.05
2018-09-11T08:25:48.607Z,17.62
2018-09-11T08:28:23.988Z,17.65
2018-09-11T08:30:59.530Z,23.43
2018-09-11T08:33:34.892Z,11.77
2018-09-11T08:36:10.290Z,21.23
2018-09-11T08:38:45.566Z,17.77
2018-09-11T08:41:20.948Z,20.68
2018-09-11T08:43:56.589Z,15.43
2018-09-11T08:46:32.189Z,16.97
2018-09-11T08:49:07.800Z,22.03
2018-09-11T08:51:43.220Z,19.03
2018-09-11T08:54:18.778Z,15.53
2018-09-11T08:56:54.246Z,15.90
2018-09-11T08:59:29.810Z,19.27
2018-09-11T09:02:05.439Z,20.27
2018-09-11T09:04:41.016Z,21.15
2018-09-11T09:07:16.327Z,13.43
2018-09-11T09:09:51.679Z,26.37
2018-09-11T09:12:26.820Z,19.45
2018-09-11T09:15:02.506Z,14.68
2018-09-11T09:17:38.170Z,29.00
2018-09-11T09:20:13.546Z,17.73
2018-09-11T09:22:49.140Z,17.17
2018-09-11T09:25:24.778Z,20.65
2018-09-11T09:28:00.230Z,17.55
2018-09-11T09:30:35.799Z,15.40
2018-09-11T09:33:11.454Z,20.33
2018-09-11T09:35:47.123Z,19.03
2018-09-11T09:38:22.563Z,20.10
2018-09-11T09:40:58.006Z,15.80
2018-09-11T09:43:33.245Z,17.70
2018-09-11T09:46:08.693Z,18.40
2018-09-11T09:48:44.068Z,20.20
2018-09-11T09:51:19.722Z,15.68
2018-09-11T09:53:55.245Z,17.97
2018-09-11T09:56:30.708Z,14.93
2018-09-11T09:59:05.959Z,20.80
2018-09-11T10:01:46.458Z,23.80
2018-09-11T10:04:21.791Z,17.95
2018-09-11T10:06:57.346Z,20.63
2018-09-11T10:09:32.817Z,17.65
2018-09-11T10:12:08.466Z,21.93
2018-09-11T10:14:43.895Z,18.10
2018-09-11T10:17:19.482Z,21.73
2018-09-11T10:19:54.907Z,19.87
2018-09-11T10:22:30.182Z,17.07
2018-09-11T10:25:05.747Z,20.48
2018-09-11T10:27:41.554Z,19.80
2018-09-11T10:30:17.038Z,19.92
2018-09-11T10:32:52.385Z,21.65
2018-09-11T10:35:27.757Z,17.90
2018-09-11T10:38:03.006Z,22.60
2018-09-11T10:40:38.644Z,17.90
2018-09-11T10:43:13.878Z,22.75
2018-09-11T10:45:49.347Z,18.57
2018-09-11T10:48:24.609Z,23.15
2018-09-11T10:51:00.068Z,21.80
2018-09-11T10:53:35.381Z,18.52
2018-09-11T10:56:11.359Z,18.80
2018-09-11T10:58:46.943Z,21.60
2018-09-11T11:01:22.572Z,20.23
2018-09-11T11:03:58.276Z,17.40
2018-09-11T11:06:33.688Z,25.90
2018-09-11T11:09:10.580Z,17.87
2018-09-11T11:11:47.249Z,24.18
2018-09-11T11:14:23.570Z,21.25
2018-09-11T11:17:00.045Z,19.50
2018-09-11T11:19:35.723Z,27.82
2018-09-11T11:22:11.274Z,25.05
2018-09-11T11:24:46.715Z,24.52
2018-09-11T11:27:22.137Z,23.40
2018-09-11T11:29:57.576Z,23.22
2018-09-11T11:32:33.126Z,19.98
2018-09-11T11:35:08.733Z,22.27
2018-09-11T11:37:44.136Z,22.70
2018-09-11T11:40:19.740Z,21.37
2018-09-11T11:42:55.433Z,22.13
2018-09-11T11:45:31.053Z,27.63
2018-09-11T11:48:06.492Z,25.77
2018-09-11T11:50:41.959Z,26.73
2018-09-11T11:53:17.172Z,22.35
2018-09-11T11:55:52.468Z,22.55
2018-09-11T11:58:28.955Z,22.48
2018-09-11T12:01:05.016Z,20.10
2018-09-11T12:03:40.876Z,21.70
2018-09-11T12:06:16.375Z,18.60
2018-09-11T12:08:51.847Z,19.73
2018-09-11T12:11:27.746Z,18.23
2018-09-11T12:14:03.947Z,20.77
2018-09-11T12:16:39.510Z,20.43
2018-09-11T12:19:15.105Z,22.50
2018-09-11T12:21:51.917Z,17.77
2018-09-11T12:24:27.315Z,18.50
2018-09-11T12:27:04.143Z,18.50
2018-09-11T12:29:40.030Z,20.07
2018-09-11T12:32:15.876Z,17.43
2018-09-11T12:34:51.981Z,21.60
2018-09-11T12:37:27.809Z,22.20
2018-09-11T12:40:03.656Z,20.00
2018-09-11T12:42:39.247Z,22.77
2018-09-11T12:45:14.666Z,22.10
2018-09-11T12:47:50.686Z,20.83
2018-09-11T12:50:26.026Z,22.03
2018-09-11T12:53:01.480Z,19.67
2018-09-11T12:55:37.010Z,26.87
2018-09-11T12:58:12.593Z,25.80
2018-09-11T13:00:48.179Z,24.30
2018-09-11T13:03:23.699Z,23.93
2018-09-11T13:05:59.229Z,23.70
2018-09-11T13:08:34.686Z,28.00
2018-09-11T13:11:10.229Z,20.63
2018-09-11T13:13:45.644Z,24.47
2018-09-11T13:16:20.919Z,28.33
2018-09-11T13:18:56.190Z,23.93
2018-09-11T13:21:31.722Z,21.27
2018-09-11T13:24:07.788Z,30.07
2018-09-11T13:26:43.026Z,25.70
2018-09-11T13:29:18.419Z,23.40
2018-09-11T13:31:54.145Z,24.27
2018-09-11T13:34:29.618Z,23.77
2018-09-11T13:37:05.252Z,25.13
2018-09-11T13:39:40.608Z,24.53
2018-09-11T13:42:15.967Z,30.63
2018-09-11T13:44:51.546Z,25.80
2018-09-11T13:47:27.001Z,29.17
2018-09-11T13:50:02.425Z,29.27
2018-09-11T13:52:37.868Z,26.27
2018-09-11T13:55:13.656Z,27.07
2018-09-11T13:57:49.300Z,27.17
2018-09-11T14:00:24.889Z,27.77
2018-09-11T14:03:00.409Z,26.03
2018-09-11T14:05:36.006Z,29.23
2018-09-11T14:08:11.445Z,24.80
2018-09-11T14:10:46.729Z,21.60
2018-09-11T14:13:21.929Z,24.77
2018-09-11T14:15:57.416Z,20.43
2018-09-11T14:18:32.898Z,28.10
2018-09-11T14:21:08.279Z,27.20
2018-09-11T14:23:43.696Z,23.20
2018-09-11T14:26:19.126Z,21.10
2018-09-11T14:28:54.688Z,21.40
2018-09-11T14:31:30.108Z,18.60
2018-09-11T14:34:05.705Z,20.93
2018-09-11T14:36:40.986Z,18.53
2018-09-11T14:39:16.388Z,18.43
2018-09-11T14:41:52.659Z,16.40
2018-09-11T14:44:28.399Z,14.67
2018-09-11T14:47:04.439Z,13.73
2018-09-11T14:49:39.925Z,20.17
2018-09-11T14:52:15.276Z,16.90
2018-09-11T14:54:50.549Z,14.70
2018-09-11T14:57:26.275Z,13.23
2018-09-11T15:00:01.663Z,13.40
2018-09-11T15:02:37.186Z,13.20
2018-09-11T15:05:12.922Z,16.80
2018-09-11T15:07:48.390Z,11.50
2018-09-11T15:10:23.848Z,12.53
2018-09-11T15:12:59.368Z,13.13
2018-09-11T15:15:34.599Z,9.67
2018-09-11T15:18:09.956Z,10.13
2018-09-11T15:20:45.407Z,11.23
2018-09-11T15:23:20.636Z,8.73
2018-09-11T15:25:56.130Z,9.47
2018-09-11T15:28:31.839Z,10.90
2018-09-11T15:31:07.370Z,7.43
2018-09-11T15:33:43.101Z,7.03
2018-09-11T15:36:18.655Z,8.70
2018-09-11T15:38:54.190Z,6.83
2018-09-11T15:41:29.720Z,6.20
2018-09-11T15:44:05.274Z,7.07
2018-09-11T15:46:40.975Z,7.70
2018-09-11T15:49:16.542Z,7.83
2018-09-11T15:51:52.117Z,7.37
2018-09-11T15:54:27.736Z,5.43
2018-09-11T15:57:03.299Z,10.00
2018-09-11T15:59:38.868Z,4.90
2018-09-11T16:02:14.296Z,7.97
2018-09-11T16:04:49.608Z,7.20
2018-09-11T16:07:25.119Z,7.33
2018-09-11T16:10:00.609Z,11.00
2018-09-11T16:12:36.069Z,7.40
2018-09-11T16:15:11.501Z,8.10
2018-09-11T16:17:46.927Z,7.43
2018-09-11T16:20:22.527Z,4.80
2018-09-11T16:22:57.916Z,6.20
2018-09-11T16:25:33.455Z,5.93
2018-09-11T16:28:08.937Z,5.73
2018-09-11T16:30:44.381Z,5.60
2018-09-11T16:33:19.715Z,9.03
2018-09-11T16:35:55.120Z,8.80
2018-09-11T16:38:30.540Z,9.77
2018-09-11T16:41:05.926Z,11.10
2018-09-11T16:43:41.187Z,7.57
2018-09-11T16:46:16.419Z,5.77
2018-09-11T16:48:51.945Z,9.63
2018-09-11T16:51:27.410Z,9.50
2018-09-11T16:54:02.946Z,4.60
2018-09-11T16:56:38.398Z,4.85
2018-09-11T16:59:13.989Z,6.83
2018-09-11T17:01:49.495Z,7.87
2018-09-11T17:04:24.870Z,4.90
2018-09-11T17:07:00.236Z,3.27
2018-09-11T17:09:35.738Z,8.38
2018-09-11T17:12:11.476Z,4.30
2018-09-11T17:14:46.960Z,11.30
2018-09-11T17:17:22.379Z,5.72
2018-09-11T17:19:57.738Z,10.93
2018-09-11T17:22:33.396Z,8.70
2018-09-11T17:25:08.863Z,4.25
2018-09-11T17:27:44.326Z,7.60
2018-09-11T17:30:19.841Z,7.08
2018-09-11T17:32:55.548Z,12.35
2018-09-11T17:35:30.960Z,5.10
2018-09-11T17:38:06.362Z,6.83
2018-09-11T17:40:42.059Z,5.28
2018-09-11T17:43:17.450Z,8.70
2018-09-11T17:45:52.868Z,9.08
2018-09-11T17:48:28.257Z,8.70
2018-09-11T17:51:03.910Z,7.03
2018-09-11T17:53:39.423Z,6.70
2018-09-11T17:56:14.797Z,6.20
2018-09-11T17:58:50.210Z,11.35
2018-09-11T18:01:25.780Z,11.07
2018-09-11T18:04:01.296Z,12.00
2018-09-11T18:06:36.934Z,6.25
2018-09-11T18:09:12.379Z,6.15
2018-09-11T18:11:47.964Z,9.08
2018-09-11T18:14:23.599Z,11.00
2018-09-11T18:16:59.169Z,4.53
2018-09-11T18:19:34.799Z,15.00
2018-09-11T18:22:10.445Z,9.90
2018-09-11T18:24:46.000Z,7.17
2018-09-11T18:27:21.557Z,6.33
2018-09-11T18:29:57.468Z,7.43
2018-09-11T18:32:32.871Z,6.15
2018-09-11T18:35:08.480Z,5.80
2018-09-11T18:37:44.121Z,4.40
2018-09-11T18:40:19.668Z,11.83
2018-09-11T18:42:55.230Z,6.62
2018-09-11T18:45:30.899Z,6.75
2018-09-11T18:48:06.581Z,10.82
2018-09-11T18:50:41.999Z,8.20
2018-09-11T18:53:17.556Z,6.12
2018-09-11T18:55:52.990Z,8.38
2018-09-11T18:58:28.291Z,8.63
2018-09-11T19:01:03.806Z,11.03
2018-09-11T19:03:39.217Z,6.03
2018-09-11T19:06:14.597Z,7.78
2018-09-11T19:08:50.108Z,7.00
2018-09-11T19:11:25.507Z,12.85
2018-09-11T19:14:01.076Z,9.63
2018-09-11T19:16:36.749Z,9.78
2018-09-11T19:19:12.510Z,4.08
2018-09-11T19:21:48.169Z,6.10
2018-09-11T19:24:23.717Z,11.15
2018-09-11T19:26:59.005Z,7.37
2018-09-11T19:29:34.530Z,11.95
2018-09-11T19:32:09.977Z,9.68
2018-09-11T19:34:45.328Z,10.28
2018-09-11T19:37:20.674Z,9.23
2018-09-11T19:39:56.052Z,17.75
2018-09-11T19:42:31.376Z,12.47
2018-09-11T19:45:07.232Z,11.43
2018-09-11T19:47:42.677Z,7.03
2018-09-11T19:50:18.335Z,9.50
2018-09-11T19:52:53.737Z,8.75
2018-09-11T19:55:29.140Z,7.05
2018-09-11T19:58:04.592Z,6.00
2018-09-11T20:00:39.848Z,7.05
2018-09-11T20:03:15.181Z,5.35
2018-09-11T20:05:50.828Z,7.58
2018-09-11T20:08:26.687Z,9.88
2018-09-11T20:11:02.302Z,5.62
2018-09-11T20:13:38.011Z,9.68
2018-09-11T20:16:13.516Z,7.70
2018-09-11T20:18:49.067Z,9.58
2018-09-11T20:21:24.245Z,11.80
2018-09-11T20:23:59.677Z,6.83
2018-09-11T20:26:36.068Z,16.95
2018-09-11T20:29:11.541Z,4.17
2018-09-11T20:31:47.004Z,6.00
2018-09-11T20:34:22.256Z,10.10
2018-09-11T20:36:57.689Z,19.57
2018-09-11T20:39:33.051Z,4.05
2018-09-11T20:42:08.736Z,7.08
2018-09-11T20:44:44.287Z,9.10
2018-09-11T20:47:19.718Z,8.25
2018-09-11T20:49:55.001Z,8.83
2018-09-11T20:52:30.451Z,5.70
2018-09-11T20:55:06.200Z,11.63
2018-09-11T20:57:41.860Z,5.53
2018-09-11T21:00:17.293Z,7.08
2018-09-11T21:02:52.746Z,6.25
2018-09-11T21:05:28.270Z,8.78
2018-09-11T21:08:03.527Z,10.90
2018-09-11T21:10:38.877Z,7.87
2018-09-11T21:13:14.484Z,9.35
2018-09-11T21:15:50.259Z,8.63
2018-09-11T21:18:25.706Z,13.48
2018-09-11T21:21:01.211Z,5.50
2018-09-11T21:23:36.523Z,8.95
2018-09-11T21:26:12.019Z,7.20
2018-09-11T21:28:47.385Z,7.03
2018-09-11T21:31:23.102Z,6.87
2018-09-11T21:33:58.546Z,5.60
2018-09-11T21:36:34.090Z,7.15
2018-09-11T21:39:11.509Z,4.85
2018-09-11T21:41:46.799Z,4.80
2018-09-11T21:44:22.119Z,5.33
2018-09-11T21:46:57.645Z,4.62
2018-09-11T21:49:33.277Z,7.45
2018-09-11T21:52:08.951Z,6.05
2018-09-11T21:54:44.439Z,3.17
2018-09-11T21:57:19.850Z,10.38
2018-09-11T21:59:55.365Z,4.05
2018-09-11T22:02:31.014Z,6.75
2018-09-11T22:05:06.937Z,4.30
2018-09-11T22:07:42.159Z,5.40
2018-09-11T22:10:17.695Z,6.78
2018-09-11T22:12:53.209Z,6.17
2018-09-11T22:15:28.569Z,5.55
2018-09-11T22:18:03.878Z,6.00
2018-09-11T22:20:39.315Z,3.22
2018-09-11T22:23:14.668Z,5.15
2018-09-11T22:25:49.968Z,6.90
2018-09-11T22:28:25.326Z,4.67
2018-09-11T22:31:00.706Z,5.55
2018-09-11T22:33:36.078Z,8.80
2018-09-11T22:36:11.586Z,3.60
2018-09-11T22:38:47.800Z,3.45
2018-09-11T22:41:23.279Z,5.78
2018-09-11T22:43:58.682Z,7.25
2018-09-11T22:46:34.008Z,3.92
2018-09-11T22:49:09.479Z,9.98
2018-09-11T22:51:45.016Z,5.55
2018-09-11T22:54:20.326Z,3.98
2018-09-11T22:56:55.597Z,2.70
2018-09-11T22:59:31.106Z,6.92
2018-09-11T23:02:06.618Z,10.53
2018-09-11T23:04:42.044Z,6.17
2018-09-11T23:07:17.447Z,12.50
2018-09-11T23:09:52.756Z,4.30
2018-09-11T23:12:28.278Z,9.05
2018-09-11T23:15:03.859Z,13.45
2018-09-11T23:17:39.288Z,9.08
2018-09-11T23:20:14.730Z,15.63
2018-09-11T23:22:50.099Z,5.67
2018-09-11T23:25:25.648Z,8.20
2018-09-11T23:28:01.046Z,9.50
2018-09-11T23:30:36.295Z,5.75
2018-09-11T23:33:11.749Z,8.20
2018-09-11T23:35:47.305Z,10.38
2018-09-11T23:38:22.680Z,5.00
2018-09-11T23:40:58.234Z,5.62
2018-09-11T23:43:33.644Z,9.83
2018-09-11T23:46:09.106Z,9.73
2018-09-11T23:48:44.852Z,7.20
2018-09-11T23:51:20.345Z,6.55
2018-09-11T23:53:55.878Z,15.75
2018-09-11T23:56:31.380Z,6.80
2018-09-11T23:59:07.071Z,3.72
